N.dadayli — TCCW7 — position and weather

sailwx.info

Track history (hours):
 
Tides and Currents Weather Stations Pressure Air Temp Water Temp Dewpoint Dewpoint Depression Visibility Wind Speed Wind Dir Waves Ship Positions

N.dadayli

Last reported at 2017-Jan-19 05:32 UTC. Time now 2017-Jan-19 06:33 UTC.
Position N 46°05' W 001°15'.

Length 101 m; draft 4.8 m.

Type: Cargo ship. MMSI: 271000768.

Date/timePositionNaut miles runAvg speedWind from/ knotsBaromVisibWave heightAir tempDewpointWater temp
2017-Jan-19 05:32N 46°05' W 001°15'0 0.0
2017-Jan-19 04:32N 46°05' W 001°15'0 0.0
2017-Jan-19 03:32N 46°05' W 001°15'0 0.0
2017-Jan-19 02:32N 46°05' W 001°15'0 0.0
2017-Jan-19 01:32N 46°05' W 001°15'0 0.0
2017-Jan-19 00:32N 46°05' W 001°15'0 0.0
2017-Jan-18 23:32N 46°05' W 001°15'0 0.0
2017-Jan-18 22:32N 46°05' W 001°15'0 0.0
2017-Jan-18 21:32N 46°05' W 001°15'8 8.2
2017-Jan-18 20:33N 46°07' W 001°26'1111.4
2017-Jan-18 19:34N 46°08' W 001°43'1211.7
2017-Jan-18 18:33N 46°17' W 001°54'1211.9
2017-Jan-18 17:33N 46°25' W 002°06'1211.9
2017-Jan-18 16:32N 46°34' W 002°19'2412.0
2017-Jan-18 14:30N 46°55' W 002°38'10 9.0
2017-Jan-18 13:24N 47°03' W 002°31'1012.3
2017-Jan-18 12:33N 47°10' W 002°19'11 1.6
2017-Jan-18 05:17N 47°18' W 002°07'0 0.0
2017-Jan-18 04:17N 47°18' W 002°07'0 0.0
2017-Jan-18 03:26N 47°18' W 002°07'0 0.0
2017-Jan-18 02:29N 47°18' W 002°07'0 0.0
2017-Jan-18 00:32N 47°18' W 002°07'0 0.0
2017-Jan-17 23:29N 47°18' W 002°07'0 0.0
2017-Jan-17 22:29N 47°18' W 002°07'0 0.0
2017-Jan-17 21:26N 47°18' W 002°07'0 0.0
2017-Jan-17 20:29N 47°18' W 002°07'0 0.0
2017-Jan-17 19:29N 47°18' W 002°07'0 0.0
2017-Jan-17 18:32N 47°18' W 002°07'0 0.0
2017-Jan-17 17:32N 47°18' W 002°07'0 0.0
2017-Jan-17 16:29N 47°18' W 002°07'0 0.0
2017-Jan-17 14:18N 47°18' W 002°07'0 0.0
2017-Jan-17 13:32N 47°18' W 002°07'1 0.7
2017-Jan-17 12:32N 47°18' W 002°08'8 8.2
2017-Jan-17 11:32N 47°12' W 002°17'9 8.8
2017-Jan-17 10:32N 47°05' W 002°25'1010.0
2017-Jan-17 09:33N 47°00' W 002°38'1110.7
2017-Jan-17 08:33N 46°54' W 002°50'  
2017-Jan-14 15:33N 39°24' W 009°50'8 7.6
2017-Jan-14 14:34N 39°17' W 009°50'8 7.6
2017-Jan-14 13:34N 39°09' W 009°50'7 7.3
2017-Jan-14 12:34N 39°02' W 009°50'7 7.4
2017-Jan-14 11:34N 38°54' W 009°50'8 7.7
2017-Jan-14 10:34N 38°47' W 009°50'7 7.5
2017-Jan-14 09:34N 38°39' W 009°49'7 7.3
2017-Jan-14 08:33N 38°32' W 009°47'7 7.1
2017-Jan-14 07:33N 38°25' W 009°45'7 6.8
2017-Jan-14 06:34N 38°19' W 009°43'7 7.1
2017-Jan-14 05:32N 38°12' W 009°41'8 7.6
2017-Jan-14 04:29N 38°04' W 009°39'  
Track history (hours):
 
Tides and Currents Weather Stations Pressure Air Temp Water Temp Dewpoint Dewpoint Depression Visibility Wind Speed Wind Dir Waves Ship Positions

N.dadayli

Last reported at 2017-Jan-19 05:32 UTC. Time now 2017-Jan-19 06:33 UTC.
Position N 46°05' W 001°15'.

Length 101 m; draft 4.8 m.

Type: Cargo ship. MMSI: 271000768.

Date/timePositionNaut miles runAvg speedWind from/ knotsBaromVisibWave heightAir tempDewpointWater temp
2017-Jan-19 05:32N 46°05' W 001°15'0 0.0
2017-Jan-19 04:32N 46°05' W 001°15'0 0.0
2017-Jan-19 03:32N 46°05' W 001°15'0 0.0
2017-Jan-19 02:32N 46°05' W 001°15'0 0.0
2017-Jan-19 01:32N 46°05' W 001°15'0 0.0
2017-Jan-19 00:32N 46°05' W 001°15'0 0.0
2017-Jan-18 23:32N 46°05' W 001°15'0 0.0
2017-Jan-18 22:32N 46°05' W 001°15'0 0.0
2017-Jan-18 21:32N 46°05' W 001°15'8 8.2
2017-Jan-18 20:33N 46°07' W 001°26'1111.4
2017-Jan-18 19:34N 46°08' W 001°43'1211.7
2017-Jan-18 18:33N 46°17' W 001°54'1211.9
2017-Jan-18 17:33N 46°25' W 002°06'1211.9
2017-Jan-18 16:32N 46°34' W 002°19'2412.0
2017-Jan-18 14:30N 46°55' W 002°38'10 9.0
2017-Jan-18 13:24N 47°03' W 002°31'1012.3
2017-Jan-18 12:33N 47°10' W 002°19'11 1.6
2017-Jan-18 05:17N 47°18' W 002°07'0 0.0
2017-Jan-18 04:17N 47°18' W 002°07'0 0.0
2017-Jan-18 03:26N 47°18' W 002°07'0 0.0
2017-Jan-18 02:29N 47°18' W 002°07'0 0.0
2017-Jan-18 00:32N 47°18' W 002°07'0 0.0
2017-Jan-17 23:29N 47°18' W 002°07'0 0.0
2017-Jan-17 22:29N 47°18' W 002°07'0 0.0
2017-Jan-17 21:26N 47°18' W 002°07'0 0.0
2017-Jan-17 20:29N 47°18' W 002°07'0 0.0
2017-Jan-17 19:29N 47°18' W 002°07'0 0.0
2017-Jan-17 18:32N 47°18' W 002°07'0 0.0
2017-Jan-17 17:32N 47°18' W 002°07'0 0.0
2017-Jan-17 16:29N 47°18' W 002°07'0 0.0
2017-Jan-17 14:18N 47°18' W 002°07'0 0.0
2017-Jan-17 13:32N 47°18' W 002°07'1 0.7
2017-Jan-17 12:32N 47°18' W 002°08'8 8.2
2017-Jan-17 11:32N 47°12' W 002°17'9 8.8
2017-Jan-17 10:32N 47°05' W 002°25'1010.0
2017-Jan-17 09:33N 47°00' W 002°38'1110.7
2017-Jan-17 08:33N 46°54' W 002°50'  
2017-Jan-14 15:33N 39°24' W 009°50'8 7.6
2017-Jan-14 14:34N 39°17' W 009°50'8 7.6
2017-Jan-14 13:34N 39°09' W 009°50'7 7.3
2017-Jan-14 12:34N 39°02' W 009°50'7 7.4
2017-Jan-14 11:34N 38°54' W 009°50'8 7.7
2017-Jan-14 10:34N 38°47' W 009°50'7 7.5
2017-Jan-14 09:34N 38°39' W 009°49'7 7.3
2017-Jan-14 08:33N 38°32' W 009°47'7 7.1
2017-Jan-14 07:33N 38°25' W 009°45'7 6.8
2017-Jan-14 06:34N 38°19' W 009°43'7 7.1
2017-Jan-14 05:32N 38°12' W 009°41'8 7.6
2017-Jan-14 04:29N 38°04' W 009°39'  

Dump ship's entire track history